N832SC KSAT-KMSY
Flight info
| Callsign | N832SC |
|---|---|
| Flight time | 1h 1m |
| Altitude | 41000 |
| Route | SNIDR2 MOLLR Q24 LCH AWDAD1 |
| Aircraft | CL60/M-SBDE1E2E3FGHIJ1J4J5J7M3RWXYZ/LB1V1D1 |
Departure
| Time | 2026-04-28 03:42 |
|---|---|
| Airport | San Antonio International Airport (KSAT) |
Arrival
| Time | 2026-04-28 04:43 |
|---|---|
| Airport | Louis Armstrong New Orleans International Airport (KMSY) |
| Time | Latitude | Longitude | Altitude | Speed | Heading |
|---|---|---|---|---|---|
| 2026-04-28 03:21 | 29.53364 | -98.47923 | 802 ft | 0 kts | 326° |
| 2026-04-28 03:23 | 29.53364 | -98.47922 | 802 ft | 0 kts | 325° |
| 2026-04-28 03:30 | 29.53365 | -98.47922 | 802 ft | 0 kts | 325° |
| 2026-04-28 03:37 | 29.53380 | -98.47928 | 802 ft | 7 kts | 352° |
| 2026-04-28 03:37 | 29.53445 | -98.47926 | 801 ft | 6 kts | 29° |
| 2026-04-28 03:38 | 29.53458 | -98.47911 | 801 ft | 1 kts | 57° |
| 2026-04-28 03:38 | 29.53479 | -98.47887 | 800 ft | 7 kts | 18° |
| 2026-04-28 03:38 | 29.53542 | -98.47945 | 802 ft | 17 kts | 309° |
| 2026-04-28 03:38 | 29.53635 | -98.48068 | 804 ft | 22 kts | 310° |
| 2026-04-28 03:39 | 29.53750 | -98.48215 | 807 ft | 25 kts | 314° |
| 2026-04-28 03:39 | 29.53874 | -98.48373 | 809 ft | 27 kts | 312° |
| 2026-04-28 03:39 | 29.53988 | -98.48521 | 810 ft | 12 kts | 313° |
| 2026-04-28 03:39 | 29.54064 | -98.48580 | 811 ft | 15 kts | 348° |
| 2026-04-28 03:40 | 29.54154 | -98.48597 | 810 ft | 13 kts | 329° |
| 2026-04-28 03:40 | 29.54193 | -98.48610 | 810 ft | 0 kts | 10° |
| 2026-04-28 03:40 | 29.54195 | -98.48610 | 810 ft | 0 kts | 9° |
| 2026-04-28 03:40 | 29.54200 | -98.48609 | 809 ft | 3 kts | 10° |
| 2026-04-28 03:41 | 29.54236 | -98.48580 | 808 ft | 9 kts | 44° |
| 2026-04-28 03:41 | 29.54242 | -98.48513 | 805 ft | 11 kts | 128° |
| 2026-04-28 03:41 | 29.54060 | -98.48276 | 804 ft | 83 kts | 132° |
| 2026-04-28 03:41 | 29.53468 | -98.47500 | 899 ft | 161 kts | 134° |
| 2026-04-28 03:42 | 29.52636 | -98.46503 | 1576 ft | 192 kts | 130° |
| 2026-04-28 03:42 | 29.51763 | -98.45296 | 2512 ft | 205 kts | 131° |
| 2026-04-28 03:42 | 29.50776 | -98.43990 | 3371 ft | 233 kts | 131° |
| 2026-04-28 03:42 | 29.49651 | -98.42506 | 4227 ft | 248 kts | 131° |
| 2026-04-28 03:43 | 29.48495 | -98.40976 | 4741 ft | 258 kts | 131° |
| 2026-04-28 03:43 | 29.47293 | -98.39365 | 4932 ft | 258 kts | 128° |
| 2026-04-28 03:43 | 29.46491 | -98.37516 | 4961 ft | 258 kts | 105° |
| 2026-04-28 03:43 | 29.46437 | -98.35479 | 5142 ft | 257 kts | 79° |
| 2026-04-28 03:44 | 29.47136 | -98.33554 | 5635 ft | 261 kts | 56° |
| 2026-04-28 03:44 | 29.48411 | -98.32068 | 6296 ft | 267 kts | 34° |
| 2026-04-28 03:44 | 29.50075 | -98.31062 | 6967 ft | 276 kts | 22° |
| 2026-04-28 03:44 | 29.51880 | -98.30187 | 7650 ft | 282 kts | 22° |
| 2026-04-28 03:45 | 29.53692 | -98.29300 | 8409 ft | 283 kts | 22° |
| 2026-04-28 03:45 | 29.55511 | -98.28404 | 9192 ft | 287 kts | 22° |
| 2026-04-28 03:45 | 29.57357 | -98.27492 | 9976 ft | 293 kts | 22° |
| 2026-04-28 03:45 | 29.59256 | -98.26553 | 10633 ft | 311 kts | 22° |
| 2026-04-28 03:46 | 29.61227 | -98.25277 | 11124 ft | 339 kts | 39° |
| 2026-04-28 03:46 | 29.62748 | -98.23189 | 11943 ft | 350 kts | 63° |
| 2026-04-28 03:46 | 29.63417 | -98.20508 | 12858 ft | 354 kts | 84° |
| 2026-04-28 03:46 | 29.63693 | -98.17700 | 13735 ft | 362 kts | 85° |
| 2026-04-28 03:47 | 29.63978 | -98.14796 | 14632 ft | 370 kts | 84° |
| 2026-04-28 03:47 | 29.64266 | -98.11842 | 15562 ft | 375 kts | 84° |
| 2026-04-28 03:47 | 29.64554 | -98.08862 | 16449 ft | 381 kts | 84° |
| 2026-04-28 03:47 | 29.64845 | -98.05826 | 17271 ft | 389 kts | 84° |
| 2026-04-28 03:48 | 29.65134 | -98.02732 | 18142 ft | 394 kts | 85° |
| 2026-04-28 03:48 | 29.65258 | -97.99612 | 18929 ft | 399 kts | 89° |
| 2026-04-28 03:48 | 29.65310 | -97.96404 | 19689 ft | 406 kts | 89° |
| 2026-04-28 03:48 | 29.65364 | -97.93124 | 20406 ft | 412 kts | 89° |
| 2026-04-28 03:49 | 29.65417 | -97.89812 | 21070 ft | 420 kts | 89° |
| 2026-04-28 03:49 | 29.65469 | -97.86468 | 21717 ft | 427 kts | 89° |
| 2026-04-28 03:49 | 29.65520 | -97.83050 | 22339 ft | 434 kts | 89° |
| 2026-04-28 03:49 | 29.65565 | -97.79566 | 22991 ft | 439 kts | 89° |
| 2026-04-28 03:50 | 29.65608 | -97.76032 | 23641 ft | 445 kts | 89° |
| 2026-04-28 03:50 | 29.65651 | -97.72450 | 24258 ft | 451 kts | 89° |
| 2026-04-28 03:50 | 29.65691 | -97.68870 | 24858 ft | 456 kts | 88° |
| 2026-04-28 03:50 | 29.65732 | -97.65213 | 25414 ft | 462 kts | 89° |
| 2026-04-28 03:51 | 29.65771 | -97.61481 | 25984 ft | 467 kts | 88° |
| 2026-04-28 03:51 | 29.65810 | -97.57764 | 26489 ft | 473 kts | 88° |
| 2026-04-28 03:51 | 29.65847 | -97.53968 | 27036 ft | 477 kts | 88° |
| 2026-04-28 03:51 | 29.65884 | -97.50158 | 27475 ft | 484 kts | 88° |
| 2026-04-28 03:52 | 29.65920 | -97.46265 | 27983 ft | 488 kts | 88° |
| 2026-04-28 03:52 | 29.65955 | -97.42342 | 28423 ft | 493 kts | 88° |
| 2026-04-28 03:52 | 29.65988 | -97.38355 | 28856 ft | 498 kts | 88° |
| 2026-04-28 03:52 | 29.66021 | -97.34405 | 29301 ft | 502 kts | 88° |
| 2026-04-28 03:53 | 29.66053 | -97.30336 | 29729 ft | 505 kts | 88° |
| 2026-04-28 03:53 | 29.66084 | -97.26321 | 30117 ft | 509 kts | 88° |
| 2026-04-28 03:53 | 29.66112 | -97.22253 | 30474 ft | 513 kts | 88° |
| 2026-04-28 03:53 | 29.66139 | -97.18117 | 30895 ft | 515 kts | 88° |
| 2026-04-28 03:54 | 29.66165 | -97.13981 | 31215 ft | 520 kts | 88° |
| 2026-04-28 03:54 | 29.66189 | -97.09869 | 31571 ft | 522 kts | 88° |
| 2026-04-28 03:54 | 29.66213 | -97.05611 | 31886 ft | 525 kts | 87° |
| 2026-04-28 03:54 | 29.66236 | -97.01201 | 32219 ft | 528 kts | 87° |
| 2026-04-28 03:55 | 29.66261 | -96.96588 | 32584 ft | 529 kts | 87° |
| 2026-04-28 03:55 | 29.66284 | -96.92278 | 32861 ft | 532 kts | 86° |
| 2026-04-28 03:55 | 29.66305 | -96.88021 | 33119 ft | 534 kts | 86° |
| 2026-04-28 03:55 | 29.66324 | -96.83752 | 33400 ft | 535 kts | 86° |
| 2026-04-28 03:56 | 29.66343 | -96.79507 | 33636 ft | 538 kts | 86° |
| 2026-04-28 03:56 | 29.66359 | -96.75131 | 33917 ft | 538 kts | 87° |
| 2026-04-28 03:56 | 29.66373 | -96.70864 | 34261 ft | 537 kts | 87° |
| 2026-04-28 03:56 | 29.66386 | -96.66380 | 34591 ft | 537 kts | 86° |
| 2026-04-28 03:57 | 29.66397 | -96.62141 | 34930 ft | 536 kts | 86° |
| 2026-04-28 03:57 | 29.66407 | -96.57861 | 35257 ft | 535 kts | 87° |
| 2026-04-28 03:57 | 29.66415 | -96.53575 | 35598 ft | 534 kts | 87° |
| 2026-04-28 03:57 | 29.66420 | -96.49361 | 35926 ft | 533 kts | 87° |
| 2026-04-28 03:58 | 29.66416 | -96.45139 | 36194 ft | 533 kts | 87° |
| 2026-04-28 03:58 | 29.66410 | -96.40836 | 36463 ft | 532 kts | 86° |
| 2026-04-28 03:58 | 29.66403 | -96.36626 | 36709 ft | 532 kts | 87° |
| 2026-04-28 03:58 | 29.66394 | -96.32320 | 36933 ft | 533 kts | 87° |
| 2026-04-28 03:59 | 29.66384 | -96.28040 | 37130 ft | 533 kts | 87° |
| 2026-04-28 03:59 | 29.66372 | -96.23798 | 37344 ft | 532 kts | 88° |
| 2026-04-28 03:59 | 29.66360 | -96.19581 | 37545 ft | 532 kts | 88° |
| 2026-04-28 03:59 | 29.66345 | -96.15294 | 37719 ft | 532 kts | 88° |
| 2026-04-28 04:00 | 29.66330 | -96.11062 | 37912 ft | 532 kts | 88° |
| 2026-04-28 04:00 | 29.66314 | -96.06821 | 38073 ft | 532 kts | 88° |
| 2026-04-28 04:00 | 29.66295 | -96.02575 | 38229 ft | 532 kts | 88° |
| 2026-04-28 04:00 | 29.66276 | -95.98306 | 38401 ft | 532 kts | 88° |
| 2026-04-28 04:01 | 29.66255 | -95.94039 | 38550 ft | 532 kts | 88° |
| 2026-04-28 04:01 | 29.66234 | -95.89837 | 38714 ft | 532 kts | 88° |
| 2026-04-28 04:01 | 29.66210 | -95.85595 | 38901 ft | 531 kts | 88° |
| 2026-04-28 04:01 | 29.66185 | -95.81325 | 39103 ft | 530 kts | 88° |
| 2026-04-28 04:02 | 29.66160 | -95.77092 | 39246 ft | 530 kts | 88° |
| 2026-04-28 04:02 | 29.66128 | -95.72830 | 39440 ft | 529 kts | 88° |
| 2026-04-28 04:02 | 29.66089 | -95.68624 | 39590 ft | 529 kts | 88° |
| 2026-04-28 04:02 | 29.66049 | -95.64365 | 39763 ft | 528 kts | 88° |
| 2026-04-28 04:03 | 29.66006 | -95.60053 | 39935 ft | 526 kts | 88° |
| 2026-04-28 04:03 | 29.65963 | -95.55780 | 40104 ft | 525 kts | 88° |
| 2026-04-28 04:03 | 29.65926 | -95.51599 | 40257 ft | 524 kts | 88° |
| 2026-04-28 04:03 | 29.65894 | -95.47405 | 40395 ft | 523 kts | 88° |
| 2026-04-28 04:04 | 29.65825 | -95.39033 | 40570 ft | 524 kts | 88° |
| 2026-04-28 04:04 | 29.65788 | -95.34842 | 40687 ft | 523 kts | 89° |
| 2026-04-28 04:04 | 29.65797 | -95.30655 | 40807 ft | 521 kts | 85° |
| 2026-04-28 04:05 | 29.66801 | -95.22520 | 40940 ft | 516 kts | 73° |
| 2026-04-28 04:05 | 29.68666 | -95.14513 | 40967 ft | 517 kts | 71° |
| 2026-04-28 04:06 | 29.70536 | -95.06567 | 40977 ft | 518 kts | 71° |
| 2026-04-28 04:06 | 29.72408 | -94.98559 | 40973 ft | 517 kts | 71° |
| 2026-04-28 04:07 | 29.74271 | -94.90538 | 40978 ft | 517 kts | 71° |
| 2026-04-28 04:07 | 29.76134 | -94.82472 | 40978 ft | 517 kts | 71° |
| 2026-04-28 04:08 | 29.78047 | -94.74155 | 40981 ft | 517 kts | 71° |
| 2026-04-28 04:08 | 29.79907 | -94.66033 | 40984 ft | 516 kts | 71° |
| 2026-04-28 04:09 | 29.81729 | -94.58041 | 40985 ft | 517 kts | 71° |
| 2026-04-28 04:09 | 29.83550 | -94.50028 | 40986 ft | 517 kts | 71° |
| 2026-04-28 04:10 | 29.85386 | -94.41914 | 40986 ft | 517 kts | 71° |
| 2026-04-28 04:10 | 29.87238 | -94.33707 | 40991 ft | 516 kts | 72° |
| 2026-04-28 04:11 | 29.89061 | -94.25594 | 40998 ft | 515 kts | 72° |
| 2026-04-28 04:11 | 29.90853 | -94.17600 | 41001 ft | 515 kts | 71° |
| 2026-04-28 04:12 | 29.92637 | -94.09613 | 40997 ft | 516 kts | 71° |
| 2026-04-28 04:12 | 29.94406 | -94.01664 | 41001 ft | 516 kts | 71° |
| 2026-04-28 04:13 | 29.96195 | -93.93605 | 41006 ft | 517 kts | 71° |
| 2026-04-28 04:13 | 29.97957 | -93.85640 | 41009 ft | 517 kts | 71° |
| 2026-04-28 04:14 | 29.99724 | -93.77627 | 41009 ft | 517 kts | 71° |
| 2026-04-28 04:14 | 30.01493 | -93.69582 | 41007 ft | 516 kts | 71° |
| 2026-04-28 04:15 | 30.03249 | -93.61569 | 41001 ft | 516 kts | 71° |
| 2026-04-28 04:16 | 30.05869 | -93.49563 | 41012 ft | 516 kts | 71° |
| 2026-04-28 04:16 | 30.07612 | -93.41546 | 41014 ft | 515 kts | 71° |
| 2026-04-28 04:17 | 30.09362 | -93.33470 | 41014 ft | 514 kts | 72° |
| 2026-04-28 04:17 | 30.11101 | -93.25398 | 40995 ft | 494 kts | 72° |
| 2026-04-28 04:17 | 30.11923 | -93.21568 | 40916 ft | 482 kts | 71° |
| 2026-04-28 04:18 | 30.12721 | -93.17851 | 40805 ft | 476 kts | 72° |
| 2026-04-28 04:18 | 30.13513 | -93.14158 | 40672 ft | 472 kts | 71° |
| 2026-04-28 04:18 | 30.14203 | -93.10447 | 40516 ft | 473 kts | 78° |
| 2026-04-28 04:18 | 30.14497 | -93.06696 | 40339 ft | 474 kts | 83° |
| 2026-04-28 04:19 | 30.14681 | -93.02914 | 40191 ft | 473 kts | 83° |
| 2026-04-28 04:19 | 30.14871 | -92.99116 | 40045 ft | 472 kts | 83° |
| 2026-04-28 04:19 | 30.15059 | -92.95335 | 39908 ft | 472 kts | 83° |
| 2026-04-28 04:19 | 30.15247 | -92.91554 | 39779 ft | 472 kts | 83° |
| 2026-04-28 04:20 | 30.15433 | -92.87775 | 39651 ft | 472 kts | 83° |
| 2026-04-28 04:20 | 30.15619 | -92.83995 | 39534 ft | 472 kts | 82° |
| 2026-04-28 04:20 | 30.15806 | -92.80180 | 39428 ft | 472 kts | 83° |
| 2026-04-28 04:21 | 30.16170 | -92.72665 | 39232 ft | 472 kts | 82° |
| 2026-04-28 04:21 | 30.16538 | -92.65058 | 38989 ft | 485 kts | 82° |
| 2026-04-28 04:21 | 30.16731 | -92.61107 | 38368 ft | 504 kts | 82° |
| 2026-04-28 04:22 | 30.16929 | -92.57027 | 37744 ft | 517 kts | 82° |
| 2026-04-28 04:22 | 30.17128 | -92.52858 | 37091 ft | 520 kts | 83° |
| 2026-04-28 04:22 | 30.17324 | -92.48686 | 36416 ft | 520 kts | 82° |
| 2026-04-28 04:22 | 30.17518 | -92.44519 | 35736 ft | 521 kts | 82° |
| 2026-04-28 04:23 | 30.17712 | -92.40352 | 35046 ft | 521 kts | 82° |
| 2026-04-28 04:23 | 30.17903 | -92.36201 | 34365 ft | 521 kts | 82° |
| 2026-04-28 04:23 | 30.18097 | -92.31991 | 33673 ft | 522 kts | 83° |
| 2026-04-28 04:23 | 30.18287 | -92.27829 | 32990 ft | 521 kts | 83° |
| 2026-04-28 04:24 | 30.18476 | -92.23637 | 32300 ft | 517 kts | 83° |
| 2026-04-28 04:24 | 30.18660 | -92.19524 | 31621 ft | 512 kts | 83° |
| 2026-04-28 04:24 | 30.18840 | -92.15482 | 30956 ft | 507 kts | 83° |
| 2026-04-28 04:24 | 30.19019 | -92.11408 | 30284 ft | 502 kts | 83° |
| 2026-04-28 04:25 | 30.19195 | -92.07412 | 29625 ft | 497 kts | 83° |
| 2026-04-28 04:25 | 30.19366 | -92.03474 | 28975 ft | 492 kts | 83° |
| 2026-04-28 04:25 | 30.19505 | -91.99529 | 28324 ft | 488 kts | 87° |
| 2026-04-28 04:25 | 30.19301 | -91.95609 | 27668 ft | 484 kts | 92° |
| 2026-04-28 04:26 | 30.19027 | -91.91782 | 27018 ft | 479 kts | 92° |
| 2026-04-28 04:26 | 30.18759 | -91.87990 | 26381 ft | 473 kts | 92° |
| 2026-04-28 04:26 | 30.18491 | -91.84218 | 25764 ft | 467 kts | 92° |
| 2026-04-28 04:26 | 30.18229 | -91.80536 | 25152 ft | 461 kts | 92° |
| 2026-04-28 04:27 | 30.17968 | -91.76877 | 24543 ft | 455 kts | 92° |
| 2026-04-28 04:27 | 30.17708 | -91.73256 | 23942 ft | 449 kts | 92° |
| 2026-04-28 04:27 | 30.17453 | -91.69730 | 23359 ft | 442 kts | 92° |
| 2026-04-28 04:27 | 30.17199 | -91.66222 | 22783 ft | 436 kts | 92° |
| 2026-04-28 04:28 | 30.16949 | -91.62779 | 22209 ft | 429 kts | 92° |
| 2026-04-28 04:28 | 30.16702 | -91.59389 | 21651 ft | 422 kts | 92° |
| 2026-04-28 04:28 | 30.16456 | -91.56033 | 21096 ft | 416 kts | 92° |
| 2026-04-28 04:28 | 30.16212 | -91.52735 | 20548 ft | 410 kts | 92° |
| 2026-04-28 04:29 | 30.15975 | -91.49532 | 20016 ft | 404 kts | 92° |
| 2026-04-28 04:29 | 30.15735 | -91.46312 | 19481 ft | 403 kts | 92° |
| 2026-04-28 04:29 | 30.15497 | -91.43105 | 18952 ft | 401 kts | 92° |
| 2026-04-28 04:29 | 30.15258 | -91.39897 | 18419 ft | 399 kts | 92° |
| 2026-04-28 04:30 | 30.15020 | -91.36716 | 17893 ft | 395 kts | 92° |
| 2026-04-28 04:30 | 30.14786 | -91.33607 | 17375 ft | 391 kts | 92° |
| 2026-04-28 04:30 | 30.14550 | -91.30466 | 16862 ft | 389 kts | 92° |
| 2026-04-28 04:30 | 30.14318 | -91.27397 | 16349 ft | 385 kts | 93° |
| 2026-04-28 04:31 | 30.14088 | -91.24352 | 15847 ft | 382 kts | 93° |
| 2026-04-28 04:31 | 30.13856 | -91.21302 | 15337 ft | 379 kts | 93° |
| 2026-04-28 04:31 | 30.13627 | -91.18289 | 14846 ft | 376 kts | 93° |
| 2026-04-28 04:31 | 30.13397 | -91.15291 | 14348 ft | 372 kts | 94° |
| 2026-04-28 04:32 | 30.13173 | -91.12360 | 13873 ft | 369 kts | 94° |
| 2026-04-28 04:32 | 30.12946 | -91.09403 | 13367 ft | 364 kts | 94° |
| 2026-04-28 04:32 | 30.12719 | -91.06470 | 12917 ft | 361 kts | 94° |
| 2026-04-28 04:32 | 30.12477 | -91.03323 | 12339 ft | 354 kts | 94° |
| 2026-04-28 04:33 | 30.12259 | -91.00535 | 11821 ft | 344 kts | 94° |
| 2026-04-28 04:33 | 30.12049 | -90.97852 | 11392 ft | 332 kts | 94° |
| 2026-04-28 04:33 | 30.11842 | -90.95227 | 10956 ft | 324 kts | 94° |
| 2026-04-28 04:33 | 30.11639 | -90.92666 | 10536 ft | 315 kts | 95° |
| 2026-04-28 04:34 | 30.11441 | -90.90179 | 10148 ft | 308 kts | 95° |
| 2026-04-28 04:34 | 30.11249 | -90.87768 | 9765 ft | 304 kts | 95° |
| 2026-04-28 04:34 | 30.11054 | -90.85322 | 9386 ft | 300 kts | 95° |
| 2026-04-28 04:34 | 30.10861 | -90.82917 | 9034 ft | 303 kts | 95° |
| 2026-04-28 04:35 | 30.10670 | -90.80513 | 8620 ft | 301 kts | 95° |
| 2026-04-28 04:35 | 30.10470 | -90.78021 | 8221 ft | 295 kts | 95° |
| 2026-04-28 04:35 | 30.10282 | -90.75680 | 7871 ft | 292 kts | 96° |
| 2026-04-28 04:35 | 30.10095 | -90.73341 | 7493 ft | 291 kts | 96° |
| 2026-04-28 04:36 | 30.09910 | -90.71042 | 7123 ft | 290 kts | 96° |
| 2026-04-28 04:36 | 30.09634 | -90.68733 | 6764 ft | 286 kts | 105° |
| 2026-04-28 04:36 | 30.09110 | -90.66537 | 6365 ft | 285 kts | 107° |
| 2026-04-28 04:36 | 30.08578 | -90.64365 | 5988 ft | 282 kts | 107° |
| 2026-04-28 04:37 | 30.08048 | -90.62188 | 5618 ft | 279 kts | 107° |
| 2026-04-28 04:37 | 30.07523 | -90.60032 | 5244 ft | 276 kts | 108° |
| 2026-04-28 04:37 | 30.06978 | -90.57787 | 4858 ft | 273 kts | 108° |
| 2026-04-28 04:37 | 30.06467 | -90.55684 | 4498 ft | 270 kts | 108° |
| 2026-04-28 04:38 | 30.05964 | -90.53616 | 4142 ft | 267 kts | 108° |
| 2026-04-28 04:38 | 30.05463 | -90.51575 | 3791 ft | 264 kts | 109° |
| 2026-04-28 04:38 | 30.04905 | -90.49567 | 3448 ft | 259 kts | 110° |
| 2026-04-28 04:38 | 30.04392 | -90.47611 | 3140 ft | 252 kts | 109° |
| 2026-04-28 04:39 | 30.03904 | -90.45691 | 2808 ft | 246 kts | 109° |
| 2026-04-28 04:39 | 30.03444 | -90.43814 | 2509 ft | 240 kts | 109° |
| 2026-04-28 04:39 | 30.03001 | -90.41981 | 2213 ft | 231 kts | 109° |
| 2026-04-28 04:39 | 30.02598 | -90.40299 | 1939 ft | 206 kts | 109° |
| 2026-04-28 04:40 | 30.02243 | -90.38803 | 1734 ft | 175 kts | 110° |
| 2026-04-28 04:40 | 30.01931 | -90.37506 | 1525 ft | 157 kts | 110° |
| 2026-04-28 04:40 | 30.01636 | -90.36296 | 1328 ft | 153 kts | 110° |
| 2026-04-28 04:40 | 30.01360 | -90.35152 | 1159 ft | 144 kts | 110° |
| 2026-04-28 04:41 | 30.01093 | -90.34049 | 978 ft | 142 kts | 109° |
| 2026-04-28 04:41 | 30.00836 | -90.32979 | 879 ft | 139 kts | 109° |
| 2026-04-28 04:41 | 30.00568 | -90.31877 | 640 ft | 140 kts | 108° |
| 2026-04-28 04:41 | 30.00311 | -90.30806 | 488 ft | 135 kts | 108° |
| 2026-04-28 04:42 | 30.00066 | -90.29800 | 289 ft | 124 kts | 107° |
| 2026-04-28 04:42 | 29.99842 | -90.28867 | 145 ft | 119 kts | 107° |
| 2026-04-28 04:42 | 29.99613 | -90.27939 | 12 ft | 117 kts | 106° |
| 2026-04-28 04:42 | 29.99421 | -90.27165 | 11 ft | 79 kts | 107° |
| 2026-04-28 04:43 | 29.99328 | -90.26782 | 11 ft | 39 kts | 106° |
| 2026-04-28 04:43 | 29.99273 | -90.26559 | 11 ft | 18 kts | 105° |
| 2026-04-28 04:43 | 29.99318 | -90.26463 | 11 ft | 17 kts | 14° |
| 2026-04-28 04:43 | 29.99437 | -90.26427 | 11 ft | 15 kts | 22° |
| 2026-04-28 04:44 | 29.99511 | -90.26389 | 11 ft | 1 kts | 22° |
| 2026-04-28 04:44 | 29.99535 | -90.26385 | 11 ft | 5 kts | 7° |
| 2026-04-28 04:44 | 29.99587 | -90.26368 | 11 ft | 9 kts | 19° |
| 2026-04-28 04:44 | 29.99668 | -90.26343 | 11 ft | 13 kts | 12° |
| 2026-04-28 04:45 | 29.99749 | -90.26356 | 11 ft | 11 kts | 298° |
| 2026-04-28 04:45 | 29.99775 | -90.26427 | 11 ft | 6 kts | 332° |
| 2026-04-28 04:45 | 29.99782 | -90.26407 | 11 ft | 5 kts | 164° |
| 2026-04-28 04:45 | 29.99776 | -90.26408 | 11 ft | 0 kts | 201° |